createdAt,value
2019-03-04T00:01:17.443Z,12.60
2019-03-04T00:03:48.305Z,12.60
2019-03-04T00:06:20.257Z,12.60
2019-03-04T00:08:52.399Z,12.60
2019-03-04T00:11:23.241Z,12.60
2019-03-04T00:13:54.080Z,12.60
2019-03-04T00:16:24.889Z,12.60
2019-03-04T00:18:55.752Z,12.60
2019-03-04T00:21:26.570Z,12.70
2019-03-04T00:23:57.382Z,12.60
2019-03-04T00:26:28.222Z,12.70
2019-03-04T00:28:59.014Z,12.70
2019-03-04T00:31:29.867Z,12.70
2019-03-04T00:34:00.701Z,12.70
2019-03-04T00:36:32.725Z,12.60
2019-03-04T00:39:05.130Z,12.60
2019-03-04T00:41:37.538Z,12.70
2019-03-04T00:44:08.368Z,12.60
2019-03-04T00:46:40.108Z,12.60
2019-03-04T00:49:11.043Z,12.60
2019-03-04T00:51:41.841Z,12.60
2019-03-04T00:54:12.653Z,12.60
2019-03-04T00:56:43.542Z,12.60
2019-03-04T00:59:15.911Z,12.60
2019-03-04T01:01:46.708Z,12.50
2019-03-04T01:04:17.687Z,12.50
2019-03-04T01:06:49.742Z,12.40
2019-03-04T01:09:20.700Z,12.40
2019-03-04T01:11:51.530Z,12.40
2019-03-04T01:14:22.388Z,12.40
2019-03-04T01:16:53.238Z,12.40
2019-03-04T01:19:24.048Z,12.40
2019-03-04T01:21:54.849Z,12.40
2019-03-04T01:24:25.665Z,12.40
2019-03-04T01:26:58.116Z,12.40
2019-03-04T01:29:28.948Z,12.40
2019-03-04T01:31:59.756Z,12.40
2019-03-04T01:34:30.558Z,12.40
2019-03-04T01:37:01.461Z,12.40
2019-03-04T01:39:32.404Z,12.40
2019-03-04T01:42:03.323Z,12.40
2019-03-04T01:44:34.136Z,12.40
2019-03-04T01:47:05.970Z,12.50
2019-03-04T01:49:36.832Z,12.50
2019-03-04T01:52:07.699Z,12.50
2019-03-04T01:54:38.489Z,12.50
2019-03-04T01:57:09.275Z,12.50
2019-03-04T01:59:40.176Z,12.50
2019-03-04T02:02:10.956Z,12.60
2019-03-04T02:04:41.768Z,12.60
2019-03-04T02:07:12.559Z,12.50
2019-03-04T02:09:43.590Z,12.60
2019-03-04T02:12:14.451Z,12.60
2019-03-04T02:14:45.299Z,12.60
2019-03-04T02:17:16.106Z,12.60
2019-03-04T02:19:46.907Z,12.60
2019-03-04T02:22:17.718Z,12.70
2019-03-04T02:24:48.491Z,12.70
2019-03-04T02:27:19.284Z,12.70
2019-03-04T02:29:50.076Z,12.80
2019-03-04T02:32:20.910Z,12.80
2019-03-04T02:34:51.692Z,12.80
2019-03-04T02:37:22.568Z,12.80
2019-03-04T02:39:53.839Z,12.90
2019-03-04T02:42:24.679Z,12.90
2019-03-04T02:44:55.626Z,12.80
2019-03-04T02:47:27.437Z,12.80
2019-03-04T02:49:58.324Z,12.70
2019-03-04T02:52:29.217Z,12.70
2019-03-04T02:55:00.078Z,12.80
2019-03-04T02:57:30.873Z,12.70
2019-03-04T03:00:01.669Z,12.70
2019-03-04T03:02:33.819Z,12.70
2019-03-04T03:05:05.290Z,12.60
2019-03-04T03:07:37.388Z,12.70
2019-03-04T03:10:08.663Z,12.70
2019-03-04T03:12:39.537Z,12.60
2019-03-04T03:15:10.782Z,12.60
2019-03-04T03:17:41.610Z,12.60
2019-03-04T03:20:12.479Z,12.60
2019-03-04T03:22:43.399Z,12.50
2019-03-04T03:25:15.554Z,12.50
2019-03-04T03:27:47.539Z,12.50
2019-03-04T03:30:18.418Z,12.40
2019-03-04T03:32:49.180Z,12.40
2019-03-04T03:35:20.095Z,12.40
2019-03-04T03:37:50.898Z,12.40
2019-03-04T03:40:21.843Z,12.50
2019-03-04T03:42:52.708Z,12.50
2019-03-04T03:45:23.510Z,12.50
2019-03-04T03:47:54.838Z,12.50
2019-03-04T03:50:26.078Z,12.50
2019-03-04T03:52:56.848Z,12.50
2019-03-04T03:55:28.769Z,12.50
2019-03-04T03:57:59.627Z,12.50
2019-03-04T04:00:30.524Z,12.50
2019-03-04T04:03:03.122Z,12.60
2019-03-04T04:05:33.909Z,12.60
2019-03-04T04:08:05.751Z,12.50
2019-03-04T04:10:36.603Z,12.50
2019-03-04T04:13:07.506Z,12.60
2019-03-04T04:15:38.369Z,12.60
2019-03-04T04:18:09.172Z,12.70
2019-03-04T04:20:39.953Z,12.70
2019-03-04T04:23:10.931Z,12.80
2019-03-04T04:25:41.715Z,12.80
2019-03-04T04:28:12.556Z,12.90
2019-03-04T04:30:43.442Z,12.90
2019-03-04T04:33:14.321Z,13.00
2019-03-04T04:35:45.395Z,13.10
2019-03-04T04:38:17.202Z,13.10
2019-03-04T04:40:47.966Z,13.20
2019-03-04T04:43:18.763Z,13.30
2019-03-04T04:45:49.514Z,13.30
2019-03-04T04:48:21.261Z,13.30
2019-03-04T04:50:52.076Z,13.30
2019-03-04T04:53:22.857Z,13.30
2019-03-04T04:55:53.694Z,13.30
2019-03-04T04:58:24.465Z,13.30
2019-03-04T05:00:55.231Z,13.30
2019-03-04T05:03:26.113Z,13.40
2019-03-04T05:05:56.877Z,13.50
2019-03-04T05:08:28.880Z,13.50
2019-03-04T05:11:00.746Z,13.50
2019-03-04T05:13:31.607Z,13.50
2019-03-04T05:16:04.172Z,13.50
2019-03-04T05:18:34.950Z,13.40
2019-03-04T05:21:05.733Z,13.40
2019-03-04T05:23:36.808Z,13.40
2019-03-04T05:26:07.598Z,13.40
2019-03-04T05:28:38.399Z,13.40
2019-03-04T05:31:09.238Z,13.40
2019-03-04T05:33:41.506Z,13.40
2019-03-04T05:36:12.428Z,13.40
2019-03-04T05:38:43.237Z,13.40
2019-03-04T05:41:14.059Z,13.30
2019-03-04T05:43:44.857Z,13.30
2019-03-04T05:46:15.642Z,13.30
2019-03-04T05:48:46.968Z,13.40
2019-03-04T05:51:17.818Z,13.40
2019-03-04T05:53:48.610Z,13.30
2019-03-04T05:56:19.382Z,13.40
2019-03-04T05:58:50.276Z,13.40
2019-03-04T06:01:29.782Z,13.40
2019-03-04T06:04:07.080Z,13.30
2019-03-04T06:07:06.186Z,13.20
2019-03-04T06:09:37.536Z,13.00
2019-03-04T06:12:08.339Z,12.70
2019-03-04T06:14:39.134Z,12.10
2019-03-04T06:17:09.895Z,11.60
2019-03-04T06:19:40.705Z,11.20
2019-03-04T06:22:11.611Z,10.90
2019-03-04T06:24:42.404Z,10.60
2019-03-04T06:27:13.201Z,10.40
2019-03-04T06:29:44.069Z,10.10
2019-03-04T06:32:14.891Z,9.90
2019-03-04T06:34:45.691Z,9.70
2019-03-04T06:37:16.482Z,9.70
2019-03-04T06:39:47.234Z,9.60
2019-03-04T06:42:19.050Z,9.60
2019-03-04T06:44:49.813Z,9.60
2019-03-04T06:47:20.566Z,9.50
2019-03-04T06:49:51.810Z,9.40
2019-03-04T06:52:23.005Z,9.40
2019-03-04T06:55:24.873Z,9.30
2019-03-04T06:57:55.913Z,9.30
2019-03-04T07:01:08.873Z,9.20
2019-03-04T07:03:45.952Z,9.20
2019-03-04T07:06:16.834Z,9.20
2019-03-04T07:09:13.111Z,9.30
2019-03-04T07:11:48.907Z,9.20
2019-03-04T07:14:19.817Z,9.20
2019-03-04T07:16:51.828Z,9.10
2019-03-04T07:19:27.338Z,9.10
2019-03-04T07:21:58.226Z,9.10
2019-03-04T07:24:29.071Z,9.10
2019-03-04T07:26:59.867Z,9.10
2019-03-04T07:29:30.705Z,9.20
2019-03-04T07:32:01.497Z,9.20
2019-03-04T07:34:33.911Z,9.20
2019-03-04T07:37:05.031Z,9.20
2019-03-04T07:39:36.855Z,9.20
2019-03-04T07:42:09.246Z,9.30
2019-03-04T07:44:40.063Z,9.30
2019-03-04T07:47:11.289Z,9.30
2019-03-04T07:49:43.611Z,9.40
2019-03-04T07:52:15.514Z,9.50
2019-03-04T07:54:46.530Z,9.60
2019-03-04T07:57:17.311Z,9.60
2019-03-04T07:59:48.094Z,9.70
2019-03-04T08:02:18.969Z,9.70
2019-03-04T08:04:49.951Z,9.60
2019-03-04T08:07:44.692Z,9.60
2019-03-04T08:10:51.216Z,9.60
2019-03-04T08:13:25.989Z,9.70
2019-03-04T08:15:58.180Z,9.70
2019-03-04T08:18:29.057Z,9.70
2019-03-04T08:20:59.925Z,9.70
2019-03-04T08:23:30.932Z,9.70
2019-03-04T08:26:02.845Z,9.70
2019-03-04T08:28:33.908Z,9.80
2019-03-04T08:31:04.850Z,9.80
2019-03-04T08:33:35.816Z,9.80
2019-03-04T08:36:06.873Z,9.90
2019-03-04T08:38:37.778Z,9.80
2019-03-04T08:41:08.592Z,9.80
2019-03-04T08:43:39.398Z,9.80
2019-03-04T08:46:10.215Z,9.90
2019-03-04T08:48:41.119Z,10.00
2019-03-04T08:51:12.003Z,10.10
2019-03-04T08:53:44.615Z,10.20
2019-03-04T08:56:15.405Z,10.20
2019-03-04T08:58:46.260Z,10.20
2019-03-04T09:01:17.191Z,10.20
2019-03-04T09:03:48.048Z,10.30
2019-03-04T09:06:18.930Z,10.30
2019-03-04T09:08:49.795Z,10.30
2019-03-04T09:11:20.834Z,10.40
2019-03-04T09:13:51.700Z,10.40
2019-03-04T09:16:22.715Z,10.50
2019-03-04T09:18:55.389Z,10.50
2019-03-04T09:21:26.272Z,10.50
2019-03-04T09:23:57.185Z,10.50
2019-03-04T09:26:28.135Z,10.50
2019-03-04T09:28:59.051Z,10.50
2019-03-04T09:31:29.992Z,10.50
2019-03-04T09:34:00.876Z,10.50
2019-03-04T09:36:31.737Z,10.50
2019-03-04T09:39:02.732Z,10.50
2019-03-04T09:41:35.585Z,10.40
2019-03-04T09:44:06.684Z,10.40
2019-03-04T09:46:37.594Z,10.30
2019-03-04T09:49:08.484Z,10.20
2019-03-04T09:51:39.391Z,10.10
2019-03-04T09:54:11.124Z,9.80
2019-03-04T09:56:42.126Z,9.50
2019-03-04T09:59:12.921Z,9.20
2019-03-04T10:01:48.087Z,9.00
2019-03-04T10:04:44.503Z,8.90
2019-03-04T10:07:50.559Z,8.80
2019-03-04T10:11:18.186Z,8.80
2019-03-04T10:14:21.263Z,8.70
2019-03-04T10:17:29.085Z,8.70
2019-03-04T10:20:44.579Z,8.70
2019-03-04T10:23:55.875Z,8.70
2019-03-04T10:27:07.967Z,8.70
2019-03-04T10:30:08.759Z,8.70
2019-03-04T10:33:29.865Z,8.80
2019-03-04T10:36:41.738Z,8.80
2019-03-04T10:39:49.577Z,8.80
2019-03-04T10:43:01.585Z,8.90
2019-03-04T10:46:06.741Z,8.90
2019-03-04T10:48:37.686Z,8.90
2019-03-04T10:51:08.501Z,8.80
2019-03-04T10:53:39.466Z,8.90
2019-03-04T10:56:10.864Z,8.90
2019-03-04T10:58:41.799Z,8.80
2019-03-04T11:01:12.761Z,8.80
2019-03-04T11:03:43.658Z,8.80
2019-03-04T11:06:14.500Z,8.70
2019-03-04T11:08:45.517Z,8.50
2019-03-04T11:11:16.467Z,8.30
2019-03-04T11:13:47.366Z,7.20
2019-03-04T11:16:18.245Z,6.80
2019-03-04T11:18:49.160Z,6.50
2019-03-04T11:21:20.047Z,6.30
2019-03-04T11:23:51.303Z,6.20
2019-03-04T11:26:22.210Z,6.20
2019-03-04T11:28:53.059Z,6.10
2019-03-04T11:31:24.058Z,6.10
2019-03-04T11:33:54.916Z,6.10
2019-03-04T11:36:28.378Z,6.10
2019-03-04T11:39:04.235Z,6.10
2019-03-04T11:41:36.747Z,6.20
2019-03-04T11:44:07.720Z,6.20
2019-03-04T11:46:38.507Z,6.30
2019-03-04T11:49:11.652Z,6.40
2019-03-04T11:51:43.266Z,6.40
2019-03-04T11:54:14.134Z,6.50
2019-03-04T11:56:46.122Z,6.70
2019-03-04T11:59:17.134Z,6.80
2019-03-04T12:01:49.703Z,6.90
2019-03-04T12:04:20.667Z,7.00
2019-03-04T12:06:51.516Z,7.20
2019-03-04T12:09:22.549Z,7.30
2019-03-04T12:11:53.432Z,7.30
2019-03-04T12:14:25.572Z,7.30
2019-03-04T12:16:56.557Z,7.30
2019-03-04T12:19:28.811Z,7.40
2019-03-04T12:22:01.656Z,7.40
2019-03-04T12:24:33.702Z,7.30
2019-03-04T12:27:04.678Z,7.20
2019-03-04T12:29:35.722Z,7.20
2019-03-04T12:32:31.732Z,7.20
2019-03-04T12:35:02.536Z,7.20
2019-03-04T12:37:33.507Z,7.20
2019-03-04T12:40:06.057Z,7.20
2019-03-04T12:42:36.998Z,7.20
2019-03-04T12:45:09.655Z,7.10
2019-03-04T12:47:42.422Z,7.20
2019-03-04T12:50:16.248Z,7.40
2019-03-04T12:52:47.071Z,7.40
2019-03-04T12:55:18.055Z,7.50
2019-03-04T12:57:49.995Z,7.60
2019-03-04T13:00:22.197Z,7.60
2019-03-04T13:02:57.686Z,7.60
2019-03-04T13:05:26.744Z,7.60
2019-03-04T13:07:57.763Z,7.60
2019-03-04T13:10:28.747Z,7.60
2019-03-04T13:12:59.654Z,7.70
2019-03-04T13:15:31.615Z,7.70
2019-03-04T13:18:02.382Z,7.80
2019-03-04T13:20:35.197Z,7.80
2019-03-04T13:23:06.492Z,7.80
2019-03-04T13:25:37.442Z,7.80
2019-03-04T13:28:09.732Z,7.80
2019-03-04T13:30:40.809Z,7.90
2019-03-04T13:33:11.832Z,8.10
2019-03-04T13:35:44.216Z,8.20
2019-03-04T13:38:15.118Z,8.10
2019-03-04T13:40:45.928Z,8.10
2019-03-04T13:43:16.838Z,8.10
2019-03-04T13:45:47.941Z,8.00
2019-03-04T13:48:18.864Z,8.00
2019-03-04T13:50:49.779Z,8.00
2019-03-04T13:53:20.638Z,8.10
2019-03-04T13:55:51.456Z,8.10
2019-03-04T13:58:23.256Z,8.20
2019-03-04T14:00:54.168Z,8.30
2019-03-04T14:03:25.150Z,8.40
2019-03-04T14:05:58.200Z,8.50
2019-03-04T14:08:30.149Z,8.60
2019-03-04T14:11:01.063Z,8.70
2019-03-04T14:13:32.062Z,8.70
2019-03-04T14:16:04.336Z,8.70
2019-03-04T14:18:35.305Z,8.90
2019-03-04T14:21:06.518Z,8.90
2019-03-04T14:23:37.323Z,9.00
2019-03-04T14:26:08.149Z,9.00
2019-03-04T14:28:40.169Z,9.00
2019-03-04T14:31:11.051Z,9.00
2019-03-04T14:33:41.908Z,9.10
2019-03-04T14:36:12.766Z,9.20
2019-03-04T14:38:43.676Z,9.10
2019-03-04T14:41:14.564Z,9.10
2019-03-04T14:43:45.384Z,9.00
2019-03-04T14:46:24.576Z,9.00
2019-03-04T14:48:55.531Z,9.00
2019-03-04T14:51:27.528Z,9.00
2019-03-04T14:53:58.525Z,8.90
2019-03-04T14:56:29.534Z,8.80
2019-03-04T14:59:10.467Z,8.80
2019-03-04T15:01:34.016Z,8.80
2019-03-04T15:04:04.984Z,8.90
2019-03-04T15:06:35.838Z,8.80
2019-03-04T15:09:10.402Z,8.80
2019-03-04T15:11:41.303Z,8.80
2019-03-04T15:14:12.146Z,8.70
2019-03-04T15:16:44.332Z,8.70
2019-03-04T15:19:16.184Z,8.60
2019-03-04T15:21:49.117Z,8.60
2019-03-04T15:24:19.622Z,8.50
2019-03-04T15:26:50.702Z,8.50
2019-03-04T15:29:21.813Z,8.60
2019-03-04T15:31:52.682Z,8.50
2019-03-04T15:34:23.492Z,8.50
2019-03-04T15:36:56.037Z,8.50
2019-03-04T15:39:26.912Z,8.50
2019-03-04T15:41:57.747Z,8.50
2019-03-04T15:44:28.717Z,8.40
2019-03-04T15:46:59.581Z,8.40
2019-03-04T15:49:30.435Z,8.50
2019-03-04T15:52:01.266Z,8.40
2019-03-04T15:54:37.763Z,8.40
2019-03-04T15:57:08.810Z,8.40
2019-03-04T15:59:40.562Z,8.30
2019-03-04T16:02:13.342Z,8.30
2019-03-04T16:04:44.294Z,8.30
2019-03-04T16:07:15.124Z,8.20
2019-03-04T16:09:46.008Z,8.20
2019-03-04T16:12:19.657Z,8.20
2019-03-04T16:14:50.443Z,8.20
2019-03-04T16:17:21.569Z,8.20
2019-03-04T16:19:52.386Z,8.10
2019-03-04T16:22:23.257Z,8.10
2019-03-04T16:24:55.265Z,8.10
2019-03-04T16:27:26.092Z,8.10
2019-03-04T16:29:56.918Z,8.10
2019-03-04T16:32:27.714Z,8.10
2019-03-04T16:34:58.598Z,8.10
2019-03-04T16:37:29.401Z,8.10
2019-03-04T16:40:00.488Z,8.10
2019-03-04T16:42:31.416Z,8.00
2019-03-04T16:45:02.370Z,8.00
2019-03-04T16:47:33.235Z,8.00
2019-03-04T16:50:04.757Z,8.00
2019-03-04T16:52:36.511Z,7.90
2019-03-04T16:55:08.515Z,7.90
2019-03-04T16:57:39.344Z,7.90
2019-03-04T17:00:13.579Z,7.90
2019-03-04T17:02:46.064Z,7.90
2019-03-04T17:05:18.331Z,7.90
2019-03-04T17:07:50.960Z,7.80
2019-03-04T17:10:22.296Z,7.80
2019-03-04T17:12:54.517Z,7.80
2019-03-04T17:15:25.657Z,7.80
2019-03-04T17:17:56.799Z,7.70
2019-03-04T17:20:28.038Z,7.70
2019-03-04T17:22:58.961Z,7.60
2019-03-04T17:25:29.963Z,7.60
2019-03-04T17:28:00.822Z,7.60
2019-03-04T17:30:31.716Z,7.60
2019-03-04T17:33:02.896Z,7.60
2019-03-04T17:35:33.766Z,7.60
2019-03-04T17:38:04.608Z,7.60
2019-03-04T17:40:35.516Z,7.60
2019-03-04T17:43:06.628Z,7.50
2019-03-04T17:45:37.757Z,7.60
2019-03-04T17:48:08.720Z,7.60
2019-03-04T17:50:39.655Z,7.60
2019-03-04T17:53:10.580Z,7.50
2019-03-04T17:55:41.549Z,7.50
2019-03-04T17:58:12.412Z,7.50
2019-03-04T18:00:46.955Z,7.50
2019-03-04T18:03:17.801Z,7.50
2019-03-04T18:05:48.760Z,7.50
2019-03-04T18:08:19.546Z,7.60
2019-03-04T18:10:50.539Z,7.50
2019-03-04T18:13:23.221Z,7.50
2019-03-04T18:15:54.124Z,7.50
2019-03-04T18:18:25.921Z,7.50
2019-03-04T18:20:56.996Z,7.50
2019-03-04T18:23:27.915Z,7.50
2019-03-04T18:26:03.401Z,7.40
2019-03-04T18:29:03.818Z,7.40
2019-03-04T18:32:02.032Z,7.40
2019-03-04T18:35:00.948Z,7.40
2019-03-04T18:38:15.027Z,7.30
2019-03-04T18:41:27.602Z,7.30
2019-03-04T18:45:00.883Z,7.30
2019-03-04T18:48:08.903Z,7.30
2019-03-04T18:50:41.696Z,7.20
2019-03-04T18:53:13.496Z,7.20
2019-03-04T18:55:44.533Z,7.20
2019-03-04T18:58:15.526Z,7.20
2019-03-04T19:00:46.959Z,7.20
2019-03-04T19:03:18.039Z,7.10
2019-03-04T19:05:49.124Z,7.20
2019-03-04T19:08:20.317Z,7.10
2019-03-04T19:10:52.321Z,7.10
2019-03-04T19:13:23.343Z,7.10
2019-03-04T19:15:54.469Z,7.10
2019-03-04T19:26:51.429Z,7.10
2019-03-04T19:29:22.595Z,7.20
2019-03-04T19:31:56.266Z,7.20
2019-03-04T19:34:31.600Z,7.20
2019-03-04T19:37:03.242Z,7.20
2019-03-04T19:39:34.736Z,7.20
2019-03-04T19:42:05.967Z,7.20
2019-03-04T19:44:36.794Z,7.10
2019-03-04T19:47:07.889Z,7.10
2019-03-04T19:49:38.980Z,7.10
2019-03-04T19:52:09.906Z,7.10
2019-03-04T19:54:44.319Z,7.10
2019-03-04T19:57:15.303Z,7.10
2019-03-04T19:59:46.559Z,7.10
2019-03-04T20:02:18.115Z,7.10
2019-03-04T20:04:49.055Z,7.10
2019-03-04T20:07:20.073Z,7.10
2019-03-04T20:09:52.684Z,7.10
2019-03-04T20:12:23.894Z,7.10
2019-03-04T20:14:55.051Z,7.20
2019-03-04T20:17:26.168Z,7.20
2019-03-04T20:19:59.374Z,7.20
2019-03-04T20:22:30.427Z,7.30
2019-03-04T20:25:01.524Z,7.30
2019-03-04T20:27:32.669Z,7.30
2019-03-04T20:30:03.812Z,7.30
2019-03-04T20:32:34.752Z,7.30
2019-03-04T20:35:06.335Z,7.40
2019-03-04T20:37:37.901Z,7.40
2019-03-04T20:40:09.702Z,7.40
2019-03-04T20:42:40.698Z,7.50
2019-03-04T20:45:12.302Z,7.50
2019-03-04T20:47:43.429Z,7.50
2019-03-04T20:50:17.141Z,7.50
2019-03-04T20:52:48.132Z,7.50
2019-03-04T20:55:19.362Z,7.60
2019-03-04T20:57:50.339Z,7.50
2019-03-04T21:00:28.148Z,7.50
2019-03-04T21:03:03.916Z,7.60
2019-03-04T21:05:36.303Z,7.60
2019-03-04T21:08:07.600Z,7.70
2019-03-04T21:10:39.535Z,7.70
2019-03-04T21:13:15.023Z,7.70
2019-03-04T21:15:47.163Z,7.60
2019-03-04T21:18:18.054Z,7.70
2019-03-04T21:20:52.009Z,7.70
2019-03-04T21:23:22.931Z,7.60
2019-03-04T21:26:15.277Z,7.60
2019-03-04T21:29:34.317Z,7.60
2019-03-04T21:32:28.954Z,7.50
2019-03-04T21:35:37.727Z,7.40
2019-03-04T21:38:09.600Z,7.30
2019-03-04T21:41:17.630Z,7.20
2019-03-04T21:43:58.376Z,7.00
2019-03-04T21:47:05.929Z,6.80
2019-03-04T21:49:40.442Z,6.70
2019-03-04T21:52:33.176Z,6.50
2019-03-04T21:55:06.578Z,6.50
2019-03-04T21:57:44.294Z,6.40
2019-03-04T22:00:22.286Z,6.40
2019-03-04T22:03:23.264Z,6.30
2019-03-04T22:05:54.355Z,6.20
2019-03-04T22:08:25.477Z,6.10
2019-03-04T22:10:56.490Z,6.10
2019-03-04T22:13:27.744Z,6.10
2019-03-04T22:16:00.284Z,6.10
2019-03-04T22:18:31.235Z,6.10
2019-03-04T22:21:03.415Z,6.00
2019-03-04T22:23:34.375Z,6.00
2019-03-04T22:26:06.802Z,6.00
2019-03-04T22:28:37.649Z,6.00
2019-03-04T22:31:08.763Z,6.00
2019-03-04T22:33:39.583Z,6.10
2019-03-04T22:36:10.545Z,6.10
2019-03-04T22:38:41.482Z,6.10
2019-03-04T22:41:13.971Z,6.10
2019-03-04T22:43:45.046Z,6.10
2019-03-04T22:46:16.169Z,6.20
2019-03-04T22:48:47.187Z,6.20
2019-03-04T22:51:18.177Z,6.20
2019-03-04T22:53:49.030Z,6.20
2019-03-04T22:56:20.022Z,6.20
2019-03-04T22:58:51.022Z,6.30
2019-03-04T23:01:45.381Z,6.30
2019-03-04T23:05:21.635Z,6.30
2019-03-04T23:07:54.914Z,6.40
2019-03-04T23:10:46.660Z,6.40
2019-03-04T23:13:55.797Z,6.40
2019-03-04T23:16:29.195Z,6.50
2019-03-04T23:19:00.084Z,6.50
2019-03-04T23:21:31.123Z,6.50
2019-03-04T23:24:03.102Z,6.60
2019-03-04T23:26:34.007Z,6.60
2019-03-04T23:29:04.863Z,6.60
2019-03-04T23:31:35.759Z,6.70
2019-03-04T23:34:06.545Z,6.70
2019-03-04T23:36:37.344Z,6.70
2019-03-04T23:39:09.185Z,6.70
2019-03-04T23:41:40.072Z,6.70
2019-03-04T23:44:10.933Z,6.70
2019-03-04T23:46:41.719Z,6.70
2019-03-04T23:49:13.624Z,6.70
2019-03-04T23:51:44.435Z,6.70
2019-03-04T23:54:15.224Z,6.80
2019-03-04T23:56:46.654Z,6.80
2019-03-04T23:59:17.468Z,6.80
